createdAt,value
2018-01-22T00:01:11.498Z,12.50
2018-01-22T00:03:40.494Z,22.53
2018-01-22T00:06:08.745Z,17.10
2018-01-22T00:08:37.786Z,13.30
2018-01-22T00:11:06.027Z,20.17
2018-01-22T00:13:34.311Z,18.33
2018-01-22T00:16:03.310Z,7.50
2018-01-22T00:18:31.607Z,12.17
2018-01-22T00:20:59.851Z,11.30
2018-01-22T00:23:28.872Z,9.57
2018-01-22T00:25:57.158Z,9.33
2018-01-22T00:28:25.414Z,10.27
2018-01-22T00:30:54.393Z,11.67
2018-01-22T00:33:23.406Z,11.60
2018-01-22T00:35:51.714Z,12.07
2018-01-22T00:38:19.968Z,11.53
2018-01-22T00:40:48.982Z,14.50
2018-01-22T00:43:17.270Z,17.00
2018-01-22T00:45:45.521Z,15.60
2018-01-22T00:48:13.786Z,12.23
2018-01-22T00:50:42.030Z,20.40
2018-01-22T00:53:10.270Z,16.10
2018-01-22T00:55:38.509Z,16.93
2018-01-22T00:58:06.781Z,16.00
2018-01-22T01:00:35.802Z,12.50
2018-01-22T01:03:04.093Z,13.07
2018-01-22T01:05:32.335Z,11.17
2018-01-22T01:08:01.342Z,14.60
2018-01-22T01:10:29.589Z,9.80
2018-01-22T01:12:57.837Z,11.10
2018-01-22T01:15:26.067Z,8.93
2018-01-22T01:17:54.343Z,12.57
2018-01-22T01:20:23.342Z,13.03
2018-01-22T01:22:51.568Z,10.50
2018-01-22T01:25:20.649Z,12.80
2018-01-22T01:27:48.910Z,10.60
2018-01-22T01:30:17.160Z,17.60
2018-01-22T01:32:45.426Z,10.90
2018-01-22T01:35:14.443Z,13.33
2018-01-22T01:37:42.694Z,9.43
2018-01-22T01:40:11.703Z,12.63
2018-01-22T01:42:40.734Z,13.30
2018-01-22T01:45:08.981Z,7.03
2018-01-22T01:47:37.230Z,7.43
2018-01-22T01:50:05.504Z,8.77
2018-01-22T01:52:33.742Z,7.50
2018-01-22T01:55:01.962Z,6.67
2018-01-22T01:57:30.991Z,7.00
2018-01-22T01:59:59.234Z,4.93
2018-01-22T02:02:28.232Z,7.03
2018-01-22T02:04:57.268Z,7.07
2018-01-22T02:07:25.494Z,11.00
2018-01-22T02:09:54.507Z,7.83
2018-01-22T02:12:23.533Z,5.70
2018-01-22T02:14:51.760Z,10.33
2018-01-22T02:17:20.809Z,6.10
2018-01-22T02:19:49.049Z,8.17
2018-01-22T02:22:18.101Z,4.93
2018-01-22T02:24:46.324Z,11.43
2018-01-22T02:27:14.578Z,5.77
2018-01-22T02:29:44.305Z,5.70
2018-01-22T02:32:13.339Z,6.07
2018-01-22T02:34:41.562Z,6.90
2018-01-22T02:37:09.823Z,8.30
2018-01-22T02:39:38.093Z,7.00
2018-01-22T02:42:06.321Z,9.93
2018-01-22T02:44:35.326Z,6.00
2018-01-22T02:47:03.557Z,4.97
2018-01-22T02:49:31.829Z,4.57
2018-01-22T02:52:01.986Z,6.63
2018-01-22T02:54:31.001Z,7.20
2018-01-22T02:56:59.231Z,5.70
2018-01-22T02:59:27.469Z,9.90
2018-01-22T03:01:55.742Z,7.53
2018-01-22T03:04:23.971Z,6.10
2018-01-22T03:06:52.989Z,7.77
2018-01-22T03:09:21.222Z,7.80
2018-01-22T03:11:49.481Z,4.50
2018-01-22T03:14:17.712Z,5.83
2018-01-22T03:16:45.997Z,7.10
2018-01-22T03:19:15.013Z,5.67
2018-01-22T03:21:43.297Z,7.63
2018-01-22T03:24:11.556Z,7.07
2018-01-22T03:26:40.534Z,7.83
2018-01-22T03:29:09.568Z,5.37
2018-01-22T03:31:37.784Z,6.17
2018-01-22T03:34:07.537Z,6.53
2018-01-22T03:36:35.788Z,8.13
2018-01-22T03:39:05.550Z,5.87
2018-01-22T03:41:33.769Z,4.73
2018-01-22T03:44:02.774Z,6.80
2018-01-22T03:46:31.802Z,7.27
2018-01-22T03:49:00.064Z,5.30
2018-01-22T03:51:29.386Z,7.83
2018-01-22T03:53:57.605Z,5.20
2018-01-22T03:56:26.624Z,4.60
2018-01-22T03:58:55.617Z,5.80
2018-01-22T04:01:24.625Z,7.50
2018-01-22T04:03:52.874Z,6.13
2018-01-22T04:06:22.326Z,4.50
2018-01-22T04:08:51.290Z,3.60
2018-01-22T04:11:20.343Z,4.17
2018-01-22T04:13:48.650Z,3.40
2018-01-22T04:16:16.922Z,7.50
2018-01-22T04:18:45.938Z,4.40
2018-01-22T04:21:14.194Z,10.70
2018-01-22T04:23:42.575Z,2.80
2018-01-22T04:26:10.773Z,12.23
2018-01-22T04:28:39.768Z,3.40
2018-01-22T04:31:08.007Z,4.07
2018-01-22T04:33:37.123Z,4.80
2018-01-22T04:36:06.155Z,3.40
2018-01-22T04:38:34.380Z,3.33
2018-01-22T04:41:03.434Z,10.23
2018-01-22T04:43:31.668Z,3.10
2018-01-22T04:46:00.690Z,2.20
2018-01-22T04:48:28.961Z,3.87
2018-01-22T04:50:58.014Z,3.03
2018-01-22T04:53:26.202Z,4.10
2018-01-22T04:55:54.448Z,2.90
2018-01-22T04:58:22.705Z,4.57
2018-01-22T05:00:50.926Z,8.57
2018-01-22T05:03:19.181Z,1.87
2018-01-22T05:05:47.457Z,1.90
2018-01-22T05:08:15.685Z,2.90
2018-01-22T05:10:43.933Z,6.47
2018-01-22T05:13:12.203Z,2.30
2018-01-22T05:15:40.449Z,3.40
2018-01-22T05:18:08.742Z,2.70
2018-01-22T05:20:37.002Z,3.17
2018-01-22T05:23:06.134Z,4.83
2018-01-22T05:25:34.402Z,2.23
2018-01-22T05:28:02.637Z,2.33
2018-01-22T05:30:31.682Z,2.53
2018-01-22T05:32:59.928Z,5.10
2018-01-22T05:35:28.268Z,2.83
2018-01-22T05:37:56.509Z,2.73
2018-01-22T05:40:24.757Z,3.13
2018-01-22T05:42:52.985Z,4.40
2018-01-22T05:45:22.742Z,3.87
2018-01-22T05:47:50.982Z,1.80
2018-01-22T05:50:20.002Z,3.13
2018-01-22T05:52:48.267Z,2.20
2018-01-22T05:55:17.284Z,7.60
2018-01-22T05:57:45.532Z,2.30
2018-01-22T06:00:14.545Z,1.90
2018-01-22T06:02:42.780Z,2.00
2018-01-22T06:05:12.571Z,5.33
2018-01-22T06:07:40.797Z,2.13
2018-01-22T06:10:09.817Z,2.17
2018-01-22T06:12:38.081Z,4.03
2018-01-22T06:15:07.114Z,3.03
2018-01-22T06:17:36.049Z,3.17
2018-01-22T06:20:06.020Z,2.63
2018-01-22T06:22:34.570Z,2.27
2018-01-22T06:25:04.801Z,2.70
2018-01-22T06:27:34.204Z,4.23
2018-01-22T06:30:03.093Z,4.97
2018-01-22T06:32:33.004Z,3.23
2018-01-22T06:35:03.346Z,4.80
2018-01-22T06:37:32.869Z,3.90
2018-01-22T06:40:02.869Z,7.63
2018-01-22T06:42:31.869Z,9.17
2018-01-22T06:45:00.095Z,10.27
2018-01-22T06:47:28.360Z,5.50
2018-01-22T06:49:56.748Z,10.33
2018-01-22T06:52:24.983Z,4.23
2018-01-22T06:54:53.298Z,5.17
2018-01-22T06:57:21.664Z,2.13
2018-01-22T06:59:49.931Z,7.23
2018-01-22T07:02:18.146Z,4.97
2018-01-22T07:04:46.383Z,7.40
2018-01-22T07:07:14.597Z,2.50
2018-01-22T07:09:42.838Z,1.70
2018-01-22T07:12:11.070Z,2.20
2018-01-22T07:14:40.108Z,2.03
2018-01-22T07:17:08.338Z,3.37
2018-01-22T07:19:37.323Z,6.53
2018-01-22T07:22:06.324Z,3.40
2018-01-22T07:24:34.612Z,12.57
2018-01-22T07:27:03.830Z,1.17
2018-01-22T07:29:32.059Z,1.70
2018-01-22T07:32:01.090Z,9.80
2018-01-22T07:34:29.339Z,17.50
2018-01-22T07:36:59.369Z,1.73
2018-01-22T07:39:28.356Z,2.47
2018-01-22T07:41:57.354Z,2.53
2018-01-22T07:44:27.127Z,15.13
2018-01-22T07:46:55.386Z,2.93
2018-01-22T07:49:23.639Z,4.20
2018-01-22T07:51:51.910Z,1.70
2018-01-22T07:54:20.881Z,5.50
2018-01-22T07:56:49.903Z,2.50
2018-01-22T07:59:18.925Z,1.60
2018-01-22T08:01:47.142Z,1.70
2018-01-22T08:04:16.881Z,1.87
2018-01-22T08:06:45.888Z,3.47
2018-01-22T08:09:14.719Z,3.47
2018-01-22T08:11:42.944Z,1.77
2018-01-22T08:14:11.205Z,1.53
2018-01-22T08:16:39.421Z,2.30
2018-01-22T08:19:07.660Z,2.07
2018-01-22T08:21:36.685Z,3.90
2018-01-22T08:24:04.950Z,3.07
2018-01-22T08:26:33.967Z,2.47
2018-01-22T08:29:02.964Z,4.40
2018-01-22T08:31:31.235Z,4.20
2018-01-22T08:33:59.460Z,2.83
2018-01-22T08:36:29.169Z,1.70
2018-01-22T08:38:58.930Z,1.93
2018-01-22T08:41:27.941Z,2.37
2018-01-22T08:43:56.200Z,1.63
2018-01-22T08:46:24.446Z,4.47
2018-01-22T08:48:52.668Z,2.83
2018-01-22T08:51:21.249Z,5.00
2018-01-22T08:53:49.493Z,3.60
2018-01-22T08:56:18.508Z,1.30
2018-01-22T08:58:47.505Z,2.70
2018-01-22T09:01:15.720Z,3.73
2018-01-22T09:03:43.969Z,1.73
2018-01-22T09:06:12.203Z,2.37
2018-01-22T09:08:41.240Z,1.40
2018-01-22T09:11:09.506Z,2.70
2018-01-22T09:13:38.515Z,4.10
2018-01-22T09:16:06.734Z,2.33
2018-01-22T09:18:35.767Z,2.93
2018-01-22T09:21:04.053Z,2.13
2018-01-22T09:23:32.305Z,3.80
2018-01-22T09:26:00.557Z,4.27
2018-01-22T09:28:29.573Z,6.37
2018-01-22T09:30:58.610Z,6.33
2018-01-22T09:33:26.853Z,9.43
2018-01-22T09:35:55.880Z,9.20
2018-01-22T09:38:24.125Z,17.40
2018-01-22T09:40:52.373Z,16.50
2018-01-22T09:43:20.644Z,10.47
2018-01-22T09:45:48.935Z,4.83
2018-01-22T09:48:17.195Z,10.20
2018-01-22T09:50:45.419Z,15.10
2018-01-22T09:53:13.688Z,11.07
2018-01-22T09:55:42.674Z,6.00
2018-01-22T09:58:11.686Z,8.63
2018-01-22T10:00:39.956Z,11.40
2018-01-22T10:03:08.228Z,6.70
2018-01-22T10:05:36.464Z,12.13
2018-01-22T10:08:04.751Z,13.53
2018-01-22T10:10:32.995Z,9.73
2018-01-22T10:13:01.251Z,12.40
2018-01-22T10:15:29.490Z,12.87
2018-01-22T10:17:57.756Z,13.07
2018-01-22T10:20:25.970Z,10.30
2018-01-22T10:22:55.002Z,17.33
2018-01-22T10:25:23.314Z,15.83
2018-01-22T10:27:51.517Z,15.40
2018-01-22T10:30:19.788Z,22.40
2018-01-22T10:32:48.824Z,16.50
2018-01-22T10:35:17.083Z,18.80
2018-01-22T10:37:45.417Z,16.63
2018-01-22T10:40:13.606Z,24.50
2018-01-22T10:42:41.906Z,35.13
2018-01-22T10:45:10.162Z,20.80
2018-01-22T10:47:38.402Z,35.97
2018-01-22T10:50:06.659Z,32.53
2018-01-22T10:52:35.287Z,40.67
2018-01-22T10:55:04.414Z,32.63
2018-01-22T10:57:33.451Z,37.50
2018-01-22T11:00:01.759Z,43.03
2018-01-22T11:02:30.042Z,38.93
2018-01-22T11:04:59.075Z,43.80
2018-01-22T11:07:27.347Z,33.50
2018-01-22T11:09:56.370Z,33.50
2018-01-22T11:12:24.597Z,47.20
2018-01-22T11:14:53.646Z,41.77
2018-01-22T11:17:22.009Z,39.63
2018-01-22T11:19:50.332Z,40.13
2018-01-22T11:22:20.110Z,37.50
2018-01-22T11:24:49.250Z,42.17
2018-01-22T11:27:17.520Z,43.40
2018-01-22T11:29:47.277Z,41.70
2018-01-22T11:32:15.555Z,41.07
2018-01-22T11:34:43.828Z,42.90
2018-01-22T11:37:12.738Z,38.03
2018-01-22T11:39:40.986Z,42.70
2018-01-22T11:42:09.997Z,42.10
2018-01-22T11:44:38.265Z,50.50
2018-01-22T11:47:07.312Z,51.63
2018-01-22T11:49:35.569Z,58.63
2018-01-22T11:52:03.844Z,46.63
2018-01-22T11:54:32.106Z,49.97
2018-01-22T11:57:00.389Z,44.93
2018-01-22T11:59:28.655Z,54.90
2018-01-22T12:01:56.915Z,57.17
2018-01-22T12:04:26.526Z,57.37
2018-01-22T12:06:55.536Z,48.33
2018-01-22T12:09:23.766Z,57.63
2018-01-22T12:11:52.035Z,51.17
2018-01-22T12:14:20.266Z,59.03
2018-01-22T12:16:49.146Z,54.00
2018-01-22T12:19:18.171Z,49.83
2018-01-22T12:21:46.446Z,64.63
2018-01-22T12:24:14.678Z,51.40
2018-01-22T12:26:43.704Z,48.77
2018-01-22T12:29:11.982Z,49.10
2018-01-22T12:31:40.283Z,58.77
2018-01-22T12:34:08.537Z,46.13
2018-01-22T12:36:36.834Z,45.90
2018-01-22T12:39:05.364Z,49.27
2018-01-22T12:41:34.664Z,48.40
2018-01-22T12:44:03.693Z,48.83
2018-01-22T12:46:31.944Z,47.50
2018-01-22T12:49:01.008Z,64.23
2018-01-22T12:51:29.260Z,36.40
2018-01-22T12:53:57.512Z,45.30
2018-01-22T12:56:25.779Z,43.73
2018-01-22T12:58:54.791Z,41.07
2018-01-22T13:01:23.133Z,34.20
2018-01-22T13:03:51.364Z,55.77
2018-01-22T13:06:19.707Z,40.23
2018-01-22T13:08:49.529Z,43.87
2018-01-22T13:11:18.547Z,43.80
2018-01-22T13:13:47.458Z,50.63
2018-01-22T13:16:16.410Z,43.40
2018-01-22T13:18:44.694Z,40.07
2018-01-22T13:21:13.007Z,43.00
2018-01-22T13:23:41.276Z,43.10
2018-01-22T13:26:09.589Z,37.67
2018-01-22T13:28:37.850Z,34.30
2018-01-22T13:31:06.096Z,30.80
2018-01-22T13:33:34.387Z,40.83
2018-01-22T13:36:02.644Z,33.20
2018-01-22T13:38:30.944Z,34.70
2018-01-22T13:41:04.838Z,32.97
2018-01-22T13:43:33.067Z,34.73
2018-01-22T13:46:01.342Z,34.47
2018-01-22T13:48:30.369Z,36.43
2018-01-22T13:50:59.021Z,25.77
2018-01-22T13:53:28.480Z,23.73
2018-01-22T13:55:56.756Z,30.70
2018-01-22T13:58:25.039Z,31.50
2018-01-22T14:00:53.294Z,26.77
2018-01-22T14:03:22.359Z,24.27
2018-01-22T14:05:52.177Z,34.60
2018-01-22T14:08:20.455Z,36.57
2018-01-22T14:10:49.304Z,27.07
2018-01-22T14:13:17.596Z,26.77
2018-01-22T14:15:45.835Z,28.57
2018-01-22T14:18:15.790Z,29.63
2018-01-22T14:20:44.050Z,30.20
2018-01-22T14:23:12.322Z,32.27
2018-01-22T14:25:40.563Z,27.73
2018-01-22T14:28:09.608Z,27.00
2018-01-22T14:30:37.918Z,38.77
2018-01-22T14:33:06.202Z,20.97
2018-01-22T14:35:34.449Z,30.07
2018-01-22T14:38:02.714Z,39.43
2018-01-22T14:40:30.995Z,23.50
2018-01-22T14:42:59.279Z,27.53
2018-01-22T14:45:28.771Z,21.43
2018-01-22T14:47:57.048Z,27.37
2018-01-22T14:50:25.314Z,45.20
2018-01-22T14:52:53.622Z,27.03
2018-01-22T14:55:21.872Z,19.23
2018-01-22T14:57:50.901Z,35.77
2018-01-22T15:00:19.792Z,18.57
2018-01-22T15:02:48.034Z,43.37
2018-01-22T15:05:16.259Z,22.37
2018-01-22T15:07:44.513Z,27.60
2018-01-22T15:10:12.766Z,24.47
2018-01-22T15:12:41.065Z,25.47
2018-01-22T15:15:09.327Z,27.43
2018-01-22T15:17:37.559Z,26.97
2018-01-22T15:20:05.802Z,16.63
2018-01-22T15:22:34.059Z,23.63
2018-01-22T15:25:02.378Z,24.43
2018-01-22T15:27:31.385Z,43.10
2018-01-22T15:30:00.425Z,32.83
2018-01-22T15:32:28.719Z,25.27
2018-01-22T15:34:56.984Z,30.27
2018-01-22T15:37:25.234Z,22.47
2018-01-22T15:39:53.471Z,23.80
2018-01-22T15:42:21.970Z,21.87
2018-01-22T15:44:50.250Z,28.63
2018-01-22T15:47:18.838Z,45.83
2018-01-22T15:49:47.093Z,29.47
2018-01-22T15:52:15.397Z,29.93
2018-01-22T15:54:44.499Z,27.57
2018-01-22T15:57:12.749Z,43.90
2018-01-22T15:59:40.984Z,24.10
2018-01-22T16:02:11.422Z,30.63
2018-01-22T16:04:39.671Z,33.43
2018-01-22T16:07:07.923Z,32.83
2018-01-22T16:09:36.954Z,45.03
2018-01-22T16:12:05.261Z,40.87
2018-01-22T16:14:33.565Z,37.30
2018-01-22T16:17:01.841Z,32.90
2018-01-22T16:19:30.075Z,23.33
2018-01-22T16:21:58.364Z,32.60
2018-01-22T16:24:26.621Z,28.13
2018-01-22T16:26:54.974Z,29.43
2018-01-22T16:29:23.332Z,66.30
2018-01-22T16:31:51.562Z,44.80
2018-01-22T16:34:19.834Z,40.07
2018-01-22T16:36:48.841Z,34.53
2018-01-22T16:39:17.149Z,34.97
2018-01-22T16:41:45.379Z,22.67
2018-01-22T16:44:13.671Z,26.23
2018-01-22T16:46:41.987Z,28.80
2018-01-22T16:49:10.251Z,41.53
2018-01-22T16:51:38.640Z,26.23
2018-01-22T16:54:06.904Z,34.30
2018-01-22T16:56:36.688Z,34.10
2018-01-22T16:59:05.742Z,29.27
2018-01-22T17:01:34.783Z,29.13
2018-01-22T17:04:03.064Z,32.77
2018-01-22T17:06:31.373Z,34.53
2018-01-22T17:08:59.614Z,37.00
2018-01-22T17:11:27.856Z,22.63
2018-01-22T17:13:56.178Z,26.90
2018-01-22T17:16:24.454Z,23.70
2018-01-22T17:18:52.796Z,37.07
2018-01-22T17:21:21.853Z,30.60
2018-01-22T17:23:50.148Z,32.50
2018-01-22T17:26:18.435Z,35.13
2018-01-22T17:28:47.503Z,38.97
2018-01-22T17:31:15.746Z,32.63
2018-01-22T17:33:43.997Z,45.67
2018-01-22T17:36:13.049Z,34.37
2018-01-22T17:38:41.402Z,45.80
2018-01-22T17:41:09.622Z,41.33
2018-01-22T17:43:38.066Z,44.83
2018-01-22T17:46:06.395Z,54.90
2018-01-22T17:48:36.151Z,47.23
2018-01-22T17:51:04.425Z,59.47
2018-01-22T17:53:32.705Z,50.67
2018-01-22T17:56:01.006Z,52.57
2018-01-22T17:58:29.205Z,43.00
2018-01-22T18:00:57.551Z,43.40
2018-01-22T18:03:25.811Z,41.87
2018-01-22T18:05:54.091Z,44.43
2018-01-22T18:08:22.549Z,52.73
2018-01-22T18:10:51.569Z,46.53
2018-01-22T18:13:19.871Z,40.13
2018-01-22T18:15:48.134Z,53.53
2018-01-22T18:18:16.435Z,49.93
2018-01-22T18:20:44.739Z,42.97
2018-01-22T18:23:13.157Z,49.77
2018-01-22T18:25:41.513Z,41.57
2018-01-22T18:28:09.825Z,47.63
2018-01-22T18:30:38.156Z,42.43
2018-01-22T18:33:07.222Z,45.43
2018-01-22T18:35:35.508Z,41.57
2018-01-22T18:38:03.782Z,39.27
2018-01-22T18:40:32.080Z,41.07
2018-01-22T18:43:01.101Z,48.40
2018-01-22T18:45:29.387Z,63.03
2018-01-22T18:47:57.935Z,38.77
2018-01-22T18:50:26.998Z,49.03
2018-01-22T18:52:55.302Z,40.23
2018-01-22T18:55:23.615Z,43.67
2018-01-22T18:57:53.053Z,39.33
2018-01-22T19:00:21.354Z,45.43
2018-01-22T19:02:49.703Z,45.47
2018-01-22T19:05:17.985Z,47.17
2018-01-22T19:07:46.279Z,38.23
2018-01-22T19:10:14.560Z,42.00
2018-01-22T19:12:42.873Z,42.00
2018-01-22T19:15:11.171Z,39.83
2018-01-22T19:17:39.485Z,51.07
2018-01-22T19:20:08.133Z,58.17
2018-01-22T19:22:36.998Z,41.67
2018-01-22T19:25:05.299Z,57.00
2018-01-22T19:27:34.386Z,39.73
2018-01-22T19:30:02.697Z,50.63
2018-01-22T19:32:31.003Z,38.33
2018-01-22T19:34:59.246Z,37.50
2018-01-22T19:37:27.832Z,48.00
2018-01-22T19:39:58.270Z,62.97
2018-01-22T19:42:27.207Z,37.80
2018-01-22T19:44:56.612Z,55.40
2018-01-22T19:47:25.935Z,47.10
2018-01-22T19:49:55.523Z,47.83
2018-01-22T19:52:25.360Z,60.47
2018-01-22T19:54:56.116Z,68.03
2018-01-22T19:57:27.938Z,53.57
2018-01-22T20:00:00.199Z,54.80
2018-01-22T20:02:28.798Z,64.23
2018-01-22T20:04:59.389Z,45.93
2018-01-22T20:07:29.245Z,68.10
2018-01-22T20:09:58.830Z,62.57
2018-01-22T20:12:28.046Z,72.43
2018-01-22T20:14:57.206Z,62.50
2018-01-22T20:17:27.107Z,76.63
2018-01-22T20:19:55.636Z,64.07
2018-01-22T20:22:23.920Z,64.07
2018-01-22T20:24:52.216Z,61.53
2018-01-22T20:27:20.526Z,62.33
2018-01-22T20:29:49.106Z,67.97
2018-01-22T20:32:19.790Z,59.87
2018-01-22T20:34:48.622Z,63.07
2018-01-22T20:37:17.585Z,84.07
2018-01-22T20:39:47.233Z,67.57
2018-01-22T20:42:15.800Z,65.73
2018-01-22T20:44:45.271Z,49.60
2018-01-22T20:47:14.356Z,77.07
2018-01-22T20:49:42.677Z,63.77
2018-01-22T20:52:10.997Z,81.37
2018-01-22T20:54:41.655Z,64.73
2018-01-22T20:57:10.004Z,60.90
2018-01-22T20:59:38.380Z,93.30
2018-01-22T21:02:07.948Z,74.47
2018-01-22T21:04:37.074Z,66.63
2018-01-22T21:07:06.612Z,72.90
2018-01-22T21:09:35.039Z,57.70
2018-01-22T21:12:03.592Z,62.50
2018-01-22T21:14:31.826Z,56.30
2018-01-22T21:17:00.125Z,54.77
2018-01-22T21:19:29.246Z,85.63
2018-01-22T21:21:57.556Z,60.57
2018-01-22T21:24:26.605Z,59.20
2018-01-22T21:26:54.891Z,55.13
2018-01-22T21:29:23.199Z,69.30
2018-01-22T21:31:51.506Z,78.23
2018-01-22T21:34:20.551Z,63.13
2018-01-22T21:36:48.854Z,67.77
2018-01-22T21:39:17.878Z,68.37
2018-01-22T21:41:46.149Z,81.83
2018-01-22T21:44:14.419Z,59.17
2018-01-22T21:46:42.668Z,62.73
2018-01-22T21:49:12.066Z,64.90
2018-01-22T21:51:40.387Z,59.87
2018-01-22T21:54:08.669Z,71.63
2018-01-22T21:56:36.920Z,73.07
2018-01-22T21:59:05.184Z,67.87
2018-01-22T22:01:33.525Z,68.93
2018-01-22T22:04:02.430Z,75.57
2018-01-22T22:06:31.326Z,78.37
2018-01-22T22:08:59.584Z,86.63
2018-01-22T22:11:27.861Z,60.23
2018-01-22T22:13:56.122Z,58.70
2018-01-22T22:16:24.376Z,47.73
2018-01-22T22:18:52.641Z,57.03
2018-01-22T22:21:21.688Z,61.40
2018-01-22T22:23:49.958Z,79.90
2018-01-22T22:26:18.235Z,75.97
2018-01-22T22:28:46.474Z,52.37
2018-01-22T22:31:14.783Z,81.57
2018-01-22T22:33:43.064Z,79.80
2018-01-22T22:36:12.031Z,64.87
2018-01-22T22:38:40.366Z,58.40
2018-01-22T22:41:09.394Z,64.50
2018-01-22T22:43:37.656Z,57.27
2018-01-22T22:46:06.715Z,59.83
2018-01-22T22:48:34.984Z,68.90
2018-01-22T22:51:03.264Z,66.43
2018-01-22T22:53:31.572Z,61.33
2018-01-22T22:56:00.618Z,65.93
2018-01-22T22:58:28.886Z,56.80
2018-01-22T23:00:57.145Z,72.00
2018-01-22T23:03:25.438Z,73.00
2018-01-22T23:05:53.676Z,59.13
2018-01-22T23:08:21.930Z,62.80
2018-01-22T23:10:50.221Z,71.40
2018-01-22T23:13:18.459Z,81.10
2018-01-22T23:15:46.704Z,62.97
2018-01-22T23:18:15.732Z,62.67
2018-01-22T23:20:43.975Z,53.67
2018-01-22T23:23:12.974Z,54.73
2018-01-22T23:25:42.005Z,43.03
2018-01-22T23:28:10.249Z,69.73
2018-01-22T23:30:39.283Z,73.67
2018-01-22T23:33:07.538Z,61.57
2018-01-22T23:35:36.556Z,64.37
2018-01-22T23:38:04.802Z,50.30
2018-01-22T23:40:33.090Z,41.13
2018-01-22T23:43:01.360Z,47.53
2018-01-22T23:45:30.357Z,54.50
2018-01-22T23:47:58.610Z,53.17
2018-01-22T23:50:27.194Z,45.00
2018-01-22T23:52:56.267Z,54.60
2018-01-22T23:55:24.493Z,50.53
2018-01-22T23:57:52.764Z,58.70
